Time;durP1;ratioP1;P1;durP2;ratioP2;P2;SDS_P1;SDS_P2;PMS_P1;PMS_P2;Temp;Humidity;BMP_temperature;BMP_pressure;BME280_temperature;BME280_humidity;BME280_pressure;Samples;Min_cycle;Max_cycle;Signal;HPM_P1;HPM_P2
2021/01/09 07:49:23;;;;;;;50.87;24.73;;;0.40;99.90;;;;;;6334287;22;20045;-96
2021/01/09 07:52:02;;;;;;;53.10;25.53;;;0.30;99.90;;;;;;6302806;22;20003;-96
2021/01/09 07:54:56;;;;;;;54.40;27.37;;;0.30;99.90;;;;;;6270636;22;20051;-96
2021/01/09 07:57:30;;;;;;;50.37;25.60;;;0.30;99.90;;;;;;6272442;22;19984;-96
2021/01/09 08:00:17;;;;;;;54.67;26.67;;;0.30;99.90;;;;;;6304130;22;20035;-95
2021/01/09 08:21:00;;;;;;;38.10;21.20;;;0.40;99.90;;;;;;6325078;22;20003;-95
2021/01/09 08:23:32;;;;;;;40.73;22.63;;;0.40;99.90;;;;;;6308164;22;19988;-96
2021/01/09 08:25:58;;;;;;;44.17;23.10;;;0.40;99.90;;;;;;6308203;22;20002;-95
2021/01/09 08:28:24;;;;;;;41.97;23.37;;;0.50;99.90;;;;;;6308610;22;19983;-96
2021/01/09 08:30:53;;;;;;;45.77;23.13;;;0.50;99.90;;;;;;6309067;22;19987;-95
2021/01/09 08:33:47;;;;;;;42.20;23.37;;;0.40;99.90;;;;;;6308707;22;19987;-96
2021/01/09 08:36:38;;;;;;;44.70;23.57;;;0.50;99.90;;;;;;6280281;22;19996;-96
2021/01/09 08:39:17;;;;;;;42.00;21.43;;;0.50;99.90;;;;;;6305902;22;19983;-95
2021/01/09 08:41:48;;;;;;;39.90;20.73;;;0.50;99.90;;;;;;6310328;22;19986;-95
2021/01/09 08:45:27;;;;;;;43.80;23.63;;;0.50;99.90;;;;;;6305946;22;19987;-96
2021/01/09 10:54:45;;;;;;;33.83;18.17;;;0.70;99.90;;;;;;6298333;22;20023;-94
2021/01/09 10:57:50;;;;;;;30.10;16.23;;;0.70;99.90;;;;;;6270137;22;20004;-94
2021/01/09 11:00:31;;;;;;;28.83;15.57;;;0.80;99.90;;;;;;6153617;23;20016;-95
2021/01/09 11:14:35;;;;;;;32.70;16.37;;;1.30;99.90;;;;;;6116189;23;20005;-95
2021/01/09 11:16:37;;;;;;;29.47;15.33;;;1.50;99.90;;;;;;6033397;23;19991;-95
2021/01/09 11:19:52;;;;;;;31.10;15.47;;;1.60;99.90;;;;;;6140155;23;19989;-94
2021/01/09 11:29:25;;;;;;;22.60;10.95;;;1.80;99.90;;;;;;6299232;22;20007;-96
2021/01/09 11:32:06;;;;;;;26.37;14.30;;;1.90;99.90;;;;;;6301751;22;20030;-95
2021/01/09 11:58:19;;;;;;;23.23;12.77;;;1.70;99.90;;;;;;6299459;22;20039;-94
2021/01/09 12:00:50;;;;;;;22.97;12.40;;;1.50;99.90;;;;;;6247051;22;19995;-95
2021/01/09 12:03:19;;;;;;;22.67;12.97;;;1.40;99.90;;;;;;6271428;22;19987;-93
2021/01/09 12:06:13;;;;;;;20.70;11.10;;;1.40;99.90;;;;;;6273338;22;20014;-94
2021/01/09 16:47:31;;;;;;;23.87;12.93;;;-0.50;99.90;;;;;;6267740;22;20020;-94
2021/01/09 16:50:53;;;;;;;16.17;9.97;;;-0.50;99.90;;;;;;6069014;23;19999;-95
2021/01/09 16:57:19;;;;;;;17.30;9.47;;;-0.50;99.90;;;;;;6116502;23;20038;-95
2021/01/09 17:00:30;;;;;;;;;;;;;;;;;;;;;
2021/01/09 20:37:52;;;;;;;21.17;12.13;;;-1.00;99.90;;;;;;6266215;22;20004;-93
2021/01/09 20:49:14;;;;;;;19.53;11.13;;;-1.00;99.90;;;;;;6259912;22;20163;-96
2021/01/09 20:51:43;;;;;;;21.07;11.13;;;-1.10;99.90;;;;;;6231497;22;19996;-93
2021/01/09 21:02:01;;;;;;;22.07;11.33;;;-1.00;99.90;;;;;;6265774;22;20143;-94
2021/01/09 21:04:32;;;;;;;;;;;-1.10;99.90;;;;;;6235594;23;19985;-93
2021/01/09 21:06:59;;;;;;;20.33;10.73;;;-1.00;99.90;;;;;;6238086;23;19888;-93
2021/01/09 21:09:29;;;;;;;22.27;11.67;;;-1.00;99.90;;;;;;6239053;23;20147;-94
2021/01/09 21:12:11;;;;;;;22.00;11.80;;;-1.00;99.90;;;;;;6239660;23;19989;-95
2021/01/09 21:14:48;;;;;;;16.45;8.10;;;-1.00;99.90;;;;;;6238076;23;19997;-94
2021/01/09 21:56:15;;;;;;;16.83;8.27;;;-1.10;99.90;;;;;;6296279;22;20067;-92
2021/01/09 22:07:32;;;;;;;;;;;;;;;;;;;;;
2021/01/09 22:10:03;;;;;;;19.37;9.30;;;-1.00;99.90;;;;;;6301709;22;19976;-94
